Terminal Aerodrome Forecast
Issued by NWS

Home | Current Version | Previous Version | Text Only | Print | Product List | Glossary On
Versions: 1 2 3 4 5 6 7 8 9 10 11 12
000
FTUS46 KPDT 281100
TAFRDM
TAF
KRDM 281120Z 2812/2912 VRB04KT P6SM SCT150
     FM282000 35011KT P6SM SCT100 BKN150
     FM290600 VRB04KT P6SM BKN150=

USA.gov is the U.S. government's official web portal to all federal, state and local government web resources and services.